Página principal
METAR-TAF:

METAR-TAF

Aeroportos :

Chongqing, China

Aeroporto Internacional de Chongqing Jiangbei

latitude: 29-31N, longitude: 106-29E, altura: 351 m

Observação actual do tempo

O boletim foi feito há 27 minutos, às 17:00 UTC
Vento calmo
Temperatura 27°C
Humidade 66%
Pressão 1008 hPa
Visibilidade: 8000 m
aguaceiros fracos de chuva

METAR: ZUCK 281700Z 00000MPS 8000 -SHRA NSC 27/20 Q1008 NOSIG

Hora: 01:27 (17:27 UTC)

Previsão

O boletim foi feito há 8 horas e 17 minutos, às 09:10 UTC
Previsão válida de 28 às 12 UTC a 29 às 12 UTC
Vento 6 kt de nor-nordeste
Visibilidade: 5000 m
Nuvens dispersasa uma altura de 5000 ft
neblina

TAF: ZUCK 280910Z 2812/2912 02003MPS 5000 BR SCT050 TX32/2907Z TN23/2822Z

Observações e previsões do tempo de mais de 4000 aeroportos (mensagens METAR e TAF).

As estações disponíveis são os pontos amarelos e vermelhos sobre o mapa.

Mova o rato sobre o mapa para ver o nome da estação.

Depois clique no ponto para visualizar as observações e previsões meteorológicas.

Para alterar o mapa : clique nos botões verdes com uma cruz preta para aumentar o zoom; no botão verde com uma pitada de zoom; ou nas setas verdes para mapas adjacentes.


METAR-TAF: